sensor_id;sensor_type;location;lat;lon;timestamp;P1;durP1;ratioP1;P2;durP2;ratioP2
71395;SDS011;59888;55.814;37.132;2023-01-05T00:01:21;2.03;;;0.75;;
71395;SDS011;59888;55.814;37.132;2023-01-05T00:03:47;1.15;;;0.55;;
71395;SDS011;59888;55.814;37.132;2023-01-05T00:06:14;0.90;;;0.55;;
71395;SDS011;59888;55.814;37.132;2023-01-05T00:08:42;1.33;;;0.60;;
71395;SDS011;59888;55.814;37.132;2023-01-05T00:11:12;1.38;;;0.60;;
71395;SDS011;59888;55.814;37.132;2023-01-05T00:13:58;1.45;;;0.75;;
71395;SDS011;59888;55.814;37.132;2023-01-05T00:19:27;2.75;;;0.93;;
71395;SDS011;59888;55.814;37.132;2023-01-05T00:22:22;2.65;;;1.10;;
71395;SDS011;59888;55.814;37.132;2023-01-05T00:27:39;2.60;;;1.20;;
71395;SDS011;59888;55.814;37.132;2023-01-05T00:30:06;1.90;;;1.00;;
71395;SDS011;59888;55.814;37.132;2023-01-05T00:32:34;2.03;;;1.00;;
71395;SDS011;59888;55.814;37.132;2023-01-05T00:35:00;2.15;;;1.30;;
71395;SDS011;59888;55.814;37.132;2023-01-05T00:37:29;2.95;;;1.30;;
71395;SDS011;59888;55.814;37.132;2023-01-05T00:39:56;2.45;;;1.23;;
71395;SDS011;59888;55.814;37.132;2023-01-05T00:42:23;1.40;;;0.88;;
71395;SDS011;59888;55.814;37.132;2023-01-05T00:44:48;2.33;;;1.10;;
71395;SDS011;59888;55.814;37.132;2023-01-05T00:47:14;2.70;;;1.08;;
71395;SDS011;59888;55.814;37.132;2023-01-05T00:49:40;1.98;;;1.10;;
71395;SDS011;59888;55.814;37.132;2023-01-05T00:52:06;3.97;;;1.40;;
71395;SDS011;59888;55.814;37.132;2023-01-05T00:54:32;3.42;;;1.38;;
71395;SDS011;59888;55.814;37.132;2023-01-05T00:56:58;2.83;;;1.42;;
71395;SDS011;59888;55.814;37.132;2023-01-05T00:59:25;4.82;;;1.70;;
71395;SDS011;59888;55.814;37.132;2023-01-05T01:01:51;3.08;;;1.48;;
71395;SDS011;59888;55.814;37.132;2023-01-05T01:04:19;3.22;;;1.63;;
71395;SDS011;59888;55.814;37.132;2023-01-05T01:06:45;2.70;;;1.40;;
71395;SDS011;59888;55.814;37.132;2023-01-05T01:09:11;2.92;;;1.50;;
71395;SDS011;59888;55.814;37.132;2023-01-05T01:11:38;4.40;;;1.55;;
71395;SDS011;59888;55.814;37.132;2023-01-05T01:14:05;4.20;;;1.67;;
71395;SDS011;59888;55.814;37.132;2023-01-05T01:16:33;4.43;;;1.88;;
71395;SDS011;59888;55.814;37.132;2023-01-05T01:18:59;2.67;;;1.45;;
71395;SDS011;59888;55.814;37.132;2023-01-05T01:21:25;4.18;;;1.98;;
71395;SDS011;59888;55.814;37.132;2023-01-05T01:23:52;3.65;;;2.15;;
71395;SDS011;59888;55.814;37.132;2023-01-05T01:26:18;4.03;;;1.88;;
71395;SDS011;59888;55.814;37.132;2023-01-05T01:28:47;5.93;;;2.30;;
71395;SDS011;59888;55.814;37.132;2023-01-05T01:31:13;4.35;;;2.03;;
71395;SDS011;59888;55.814;37.132;2023-01-05T01:33:38;4.60;;;2.00;;
71395;SDS011;59888;55.814;37.132;2023-01-05T01:36:05;4.13;;;1.90;;
71395;SDS011;59888;55.814;37.132;2023-01-05T01:38:32;4.00;;;1.90;;
71395;SDS011;59888;55.814;37.132;2023-01-05T01:40:58;4.32;;;2.20;;
71395;SDS011;59888;55.814;37.132;2023-01-05T01:46:18;5.57;;;2.25;;
71395;SDS011;59888;55.814;37.132;2023-01-05T01:48:46;5.50;;;2.40;;
71395;SDS011;59888;55.814;37.132;2023-01-05T01:51:17;6.25;;;2.25;;
71395;SDS011;59888;55.814;37.132;2023-01-05T01:53:50;4.35;;;2.15;;
71395;SDS011;59888;55.814;37.132;2023-01-05T01:56:20;4.95;;;2.30;;
71395;SDS011;59888;55.814;37.132;2023-01-05T01:58:49;4.22;;;2.28;;
71395;SDS011;59888;55.814;37.132;2023-01-05T02:01:16;4.82;;;2.30;;
71395;SDS011;59888;55.814;37.132;2023-01-05T02:03:43;4.03;;;2.40;;
71395;SDS011;59888;55.814;37.132;2023-01-05T02:06:09;5.53;;;2.42;;
71395;SDS011;59888;55.814;37.132;2023-01-05T02:08:36;4.95;;;2.38;;
71395;SDS011;59888;55.814;37.132;2023-01-05T02:31:26;4.30;;;2.08;;
71395;SDS011;59888;55.814;37.132;2023-01-05T02:37:07;5.13;;;2.25;;
71395;SDS011;59888;55.814;37.132;2023-01-05T02:39:56;4.47;;;1.80;;
71395;SDS011;59888;55.814;37.132;2023-01-05T02:42:31;3.00;;;1.77;;
71395;SDS011;59888;55.814;37.132;2023-01-05T02:45:00;4.25;;;1.73;;
71395;SDS011;59888;55.814;37.132;2023-01-05T02:50:01;3.10;;;1.30;;
71395;SDS011;59888;55.814;37.132;2023-01-05T02:52:38;4.07;;;1.67;;
71395;SDS011;59888;55.814;37.132;2023-01-05T02:55:08;2.95;;;1.60;;
71395;SDS011;59888;55.814;37.132;2023-01-05T02:57:41;4.10;;;1.95;;
71395;SDS011;59888;55.814;37.132;2023-01-05T03:00:20;3.55;;;1.88;;
71395;SDS011;59888;55.814;37.132;2023-01-05T03:02:51;4.32;;;1.50;;
71395;SDS011;59888;55.814;37.132;2023-01-05T03:05:26;3.55;;;1.73;;
71395;SDS011;59888;55.814;37.132;2023-01-05T03:07:56;3.38;;;1.50;;
71395;SDS011;59888;55.814;37.132;2023-01-05T03:10:35;3.85;;;1.70;;
71395;SDS011;59888;55.814;37.132;2023-01-05T03:13:34;4.00;;;1.45;;
71395;SDS011;59888;55.814;37.132;2023-01-05T03:16:10;2.50;;;1.45;;
71395;SDS011;59888;55.814;37.132;2023-01-05T03:18:45;2.78;;;1.50;;
71395;SDS011;59888;55.814;37.132;2023-01-05T03:21:31;3.22;;;1.48;;
71395;SDS011;59888;55.814;37.132;2023-01-05T03:24:15;4.72;;;1.77;;
71395;SDS011;59888;55.814;37.132;2023-01-05T03:27:01;4.00;;;1.70;;
71395;SDS011;59888;55.814;37.132;2023-01-05T03:29:50;6.30;;;1.80;;
71395;SDS011;59888;55.814;37.132;2023-01-05T03:32:39;3.58;;;1.70;;
71395;SDS011;59888;55.814;37.132;2023-01-05T03:38:06;4.50;;;1.48;;
71395;SDS011;59888;55.814;37.132;2023-01-05T03:40:42;2.47;;;1.45;;
71395;SDS011;59888;55.814;37.132;2023-01-05T03:43:11;3.28;;;1.70;;
71395;SDS011;59888;55.814;37.132;2023-01-05T03:45:45;2.38;;;1.30;;
71395;SDS011;59888;55.814;37.132;2023-01-05T03:48:21;3.60;;;1.60;;
71395;SDS011;59888;55.814;37.132;2023-01-05T03:50:48;5.15;;;1.40;;
71395;SDS011;59888;55.814;37.132;2023-01-05T03:53:16;3.25;;;1.30;;
71395;SDS011;59888;55.814;37.132;2023-01-05T03:55:44;3.13;;;1.30;;
71395;SDS011;59888;55.814;37.132;2023-01-05T03:58:10;3.05;;;1.42;;
71395;SDS011;59888;55.814;37.132;2023-01-05T04:00:39;2.60;;;1.60;;
71395;SDS011;59888;55.814;37.132;2023-01-05T04:03:08;3.05;;;1.65;;
71395;SDS011;59888;55.814;37.132;2023-01-05T04:05:35;2.38;;;1.38;;
71395;SDS011;59888;55.814;37.132;2023-01-05T04:08:02;2.50;;;1.30;;
71395;SDS011;59888;55.814;37.132;2023-01-05T04:10:28;2.63;;;1.30;;
71395;SDS011;59888;55.814;37.132;2023-01-05T04:12:57;3.20;;;1.52;;
71395;SDS011;59888;55.814;37.132;2023-01-05T04:15:23;3.42;;;1.40;;
71395;SDS011;59888;55.814;37.132;2023-01-05T04:17:52;2.63;;;1.48;;
71395;SDS011;59888;55.814;37.132;2023-01-05T04:20:18;3.55;;;1.67;;
71395;SDS011;59888;55.814;37.132;2023-01-05T04:22:44;2.97;;;1.50;;
71395;SDS011;59888;55.814;37.132;2023-01-05T04:25:10;4.03;;;1.88;;
71395;SDS011;59888;55.814;37.132;2023-01-05T04:27:38;2.47;;;1.52;;
71395;SDS011;59888;55.814;37.132;2023-01-05T04:30:04;2.88;;;1.63;;
71395;SDS011;59888;55.814;37.132;2023-01-05T04:32:32;3.58;;;1.50;;
71395;SDS011;59888;55.814;37.132;2023-01-05T04:34:58;3.83;;;1.60;;
71395;SDS011;59888;55.814;37.132;2023-01-05T04:37:24;3.08;;;1.88;;
71395;SDS011;59888;55.814;37.132;2023-01-05T04:39:51;3.58;;;2.20;;
71395;SDS011;59888;55.814;37.132;2023-01-05T04:42:18;5.88;;;1.60;;
71395;SDS011;59888;55.814;37.132;2023-01-05T04:44:49;3.20;;;1.60;;
71395;SDS011;59888;55.814;37.132;2023-01-05T04:47:17;4.80;;;1.90;;
71395;SDS011;59888;55.814;37.132;2023-01-05T04:49:43;2.88;;;1.83;;
71395;SDS011;59888;55.814;37.132;2023-01-05T04:52:10;3.55;;;1.80;;
71395;SDS011;59888;55.814;37.132;2023-01-05T04:54:36;4.43;;;1.98;;
71395;SDS011;59888;55.814;37.132;2023-01-05T04:57:04;3.42;;;1.70;;
71395;SDS011;59888;55.814;37.132;2023-01-05T04:59:30;3.38;;;1.63;;
71395;SDS011;59888;55.814;37.132;2023-01-05T05:02:00;2.65;;;1.38;;
71395;SDS011;59888;55.814;37.132;2023-01-05T05:04:28;3.03;;;1.55;;
71395;SDS011;59888;55.814;37.132;2023-01-05T05:06:54;6.90;;;1.95;;
71395;SDS011;59888;55.814;37.132;2023-01-05T05:09:23;3.58;;;1.67;;
71395;SDS011;59888;55.814;37.132;2023-01-05T05:11:50;3.58;;;1.65;;
71395;SDS011;59888;55.814;37.132;2023-01-05T05:14:19;3.17;;;1.48;;
71395;SDS011;59888;55.814;37.132;2023-01-05T05:16:46;3.63;;;1.92;;
71395;SDS011;59888;55.814;37.132;2023-01-05T05:19:12;3.83;;;1.83;;
71395;SDS011;59888;55.814;37.132;2023-01-05T05:21:38;2.63;;;1.63;;
71395;SDS011;59888;55.814;37.132;2023-01-05T05:24:04;4.25;;;1.70;;
71395;SDS011;59888;55.814;37.132;2023-01-05T05:26:35;2.90;;;1.50;;
71395;SDS011;59888;55.814;37.132;2023-01-05T05:29:01;3.33;;;1.60;;
71395;SDS011;59888;55.814;37.132;2023-01-05T05:31:26;3.38;;;1.55;;
71395;SDS011;59888;55.814;37.132;2023-01-05T05:33:52;3.30;;;1.58;;
71395;SDS011;59888;55.814;37.132;2023-01-05T05:36:18;3.55;;;1.80;;
71395;SDS011;59888;55.814;37.132;2023-01-05T05:38:44;3.45;;;1.70;;
71395;SDS011;59888;55.814;37.132;2023-01-05T05:41:10;4.10;;;1.75;;
71395;SDS011;59888;55.814;37.132;2023-01-05T05:43:36;3.90;;;1.80;;
71395;SDS011;59888;55.814;37.132;2023-01-05T05:46:02;5.05;;;1.83;;
71395;SDS011;59888;55.814;37.132;2023-01-05T05:48:28;4.53;;;1.80;;
71395;SDS011;59888;55.814;37.132;2023-01-05T05:50:54;3.75;;;1.75;;
71395;SDS011;59888;55.814;37.132;2023-01-05T05:53:19;4.10;;;1.63;;
71395;SDS011;59888;55.814;37.132;2023-01-05T05:55:49;4.60;;;1.90;;
71395;SDS011;59888;55.814;37.132;2023-01-05T05:58:16;3.70;;;1.67;;
71395;SDS011;59888;55.814;37.132;2023-01-05T06:00:45;3.95;;;1.90;;
71395;SDS011;59888;55.814;37.132;2023-01-05T06:03:11;4.60;;;1.80;;
71395;SDS011;59888;55.814;37.132;2023-01-05T06:05:36;5.50;;;2.28;;
71395;SDS011;59888;55.814;37.132;2023-01-05T06:08:02;4.85;;;2.05;;
71395;SDS011;59888;55.814;37.132;2023-01-05T06:10:29;3.90;;;1.92;;
71395;SDS011;59888;55.814;37.132;2023-01-05T06:12:55;5.68;;;2.25;;
71395;SDS011;59888;55.814;37.132;2023-01-05T06:15:21;6.53;;;2.60;;
71395;SDS011;59888;55.814;37.132;2023-01-05T06:17:47;5.60;;;3.00;;
71395;SDS011;59888;55.814;37.132;2023-01-05T06:20:14;5.68;;;2.70;;
71395;SDS011;59888;55.814;37.132;2023-01-05T06:22:41;4.97;;;2.63;;
71395;SDS011;59888;55.814;37.132;2023-01-05T06:25:07;4.88;;;2.35;;
71395;SDS011;59888;55.814;37.132;2023-01-05T06:27:34;5.75;;;2.65;;
71395;SDS011;59888;55.814;37.132;2023-01-05T06:30:00;5.00;;;2.30;;
71395;SDS011;59888;55.814;37.132;2023-01-05T06:32:26;5.45;;;2.40;;
71395;SDS011;59888;55.814;37.132;2023-01-05T06:34:51;4.90;;;2.80;;
71395;SDS011;59888;55.814;37.132;2023-01-05T06:37:17;4.45;;;2.20;;
71395;SDS011;59888;55.814;37.132;2023-01-05T06:39:43;5.10;;;2.60;;
71395;SDS011;59888;55.814;37.132;2023-01-05T06:42:09;4.25;;;2.22;;
71395;SDS011;59888;55.814;37.132;2023-01-05T06:44:35;4.88;;;2.50;;
71395;SDS011;59888;55.814;37.132;2023-01-05T06:47:01;4.63;;;2.63;;
71395;SDS011;59888;55.814;37.132;2023-01-05T06:49:26;4.72;;;2.47;;
71395;SDS011;59888;55.814;37.132;2023-01-05T06:51:52;5.05;;;2.85;;
71395;SDS011;59888;55.814;37.132;2023-01-05T06:54:19;5.22;;;2.72;;
71395;SDS011;59888;55.814;37.132;2023-01-05T06:56:45;4.85;;;2.78;;
71395;SDS011;59888;55.814;37.132;2023-01-05T06:59:11;5.05;;;2.75;;
71395;SDS011;59888;55.814;37.132;2023-01-05T07:01:37;5.63;;;2.85;;
71395;SDS011;59888;55.814;37.132;2023-01-05T07:04:03;5.85;;;3.15;;
71395;SDS011;59888;55.814;37.132;2023-01-05T07:06:29;5.63;;;3.25;;
71395;SDS011;59888;55.814;37.132;2023-01-05T07:08:55;7.85;;;3.40;;
71395;SDS011;59888;55.814;37.132;2023-01-05T07:11:21;5.93;;;2.83;;
71395;SDS011;59888;55.814;37.132;2023-01-05T07:13:47;4.78;;;2.78;;
71395;SDS011;59888;55.814;37.132;2023-01-05T07:16:16;6.70;;;3.00;;
71395;SDS011;59888;55.814;37.132;2023-01-05T07:18:42;5.30;;;3.17;;
71395;SDS011;59888;55.814;37.132;2023-01-05T07:21:08;5.28;;;2.67;;
71395;SDS011;59888;55.814;37.132;2023-01-05T07:23:34;4.15;;;2.20;;
71395;SDS011;59888;55.814;37.132;2023-01-05T07:26:04;4.15;;;2.00;;
71395;SDS011;59888;55.814;37.132;2023-01-05T07:28:31;3.92;;;2.10;;
71395;SDS011;59888;55.814;37.132;2023-01-05T07:30:57;5.93;;;2.20;;
71395;SDS011;59888;55.814;37.132;2023-01-05T07:33:22;5.07;;;2.75;;
71395;SDS011;59888;55.814;37.132;2023-01-05T07:35:48;5.00;;;2.42;;
71395;SDS011;59888;55.814;37.132;2023-01-05T07:38:14;4.72;;;2.33;;
71395;SDS011;59888;55.814;37.132;2023-01-05T07:40:40;4.20;;;1.77;;
71395;SDS011;59888;55.814;37.132;2023-01-05T07:43:06;4.28;;;2.03;;
71395;SDS011;59888;55.814;37.132;2023-01-05T07:45:32;5.35;;;2.45;;
71395;SDS011;59888;55.814;37.132;2023-01-05T07:47:57;3.97;;;2.38;;
71395;SDS011;59888;55.814;37.132;2023-01-05T07:50:24;4.50;;;2.17;;
71395;SDS011;59888;55.814;37.132;2023-01-05T07:52:50;3.53;;;1.98;;
71395;SDS011;59888;55.814;37.132;2023-01-05T07:55:16;3.70;;;2.10;;
71395;SDS011;59888;55.814;37.132;2023-01-05T07:57:42;3.22;;;1.70;;
71395;SDS011;59888;55.814;37.132;2023-01-05T08:00:09;5.10;;;2.10;;
71395;SDS011;59888;55.814;37.132;2023-01-05T08:02:38;4.05;;;1.90;;
71395;SDS011;59888;55.814;37.132;2023-01-05T08:05:04;3.83;;;2.20;;
71395;SDS011;59888;55.814;37.132;2023-01-05T08:07:30;2.83;;;1.60;;
71395;SDS011;59888;55.814;37.132;2023-01-05T08:09:56;3.55;;;1.73;;
71395;SDS011;59888;55.814;37.132;2023-01-05T08:12:40;4.13;;;2.10;;
71395;SDS011;59888;55.814;37.132;2023-01-05T08:15:24;6.45;;;2.20;;
71395;SDS011;59888;55.814;37.132;2023-01-05T08:17:50;5.15;;;2.42;;
71395;SDS011;59888;55.814;37.132;2023-01-05T08:20:16;4.18;;;2.35;;
71395;SDS011;59888;55.814;37.132;2023-01-05T08:22:42;5.68;;;2.20;;
71395;SDS011;59888;55.814;37.132;2023-01-05T08:25:08;6.47;;;2.42;;
71395;SDS011;59888;55.814;37.132;2023-01-05T08:27:34;5.65;;;2.58;;
71395;SDS011;59888;55.814;37.132;2023-01-05T08:30:00;3.90;;;2.20;;
71395;SDS011;59888;55.814;37.132;2023-01-05T08:32:25;5.15;;;2.40;;
71395;SDS011;59888;55.814;37.132;2023-01-05T08:34:51;5.22;;;2.35;;
71395;SDS011;59888;55.814;37.132;2023-01-05T08:37:17;5.20;;;2.72;;
71395;SDS011;59888;55.814;37.132;2023-01-05T08:39:43;5.32;;;2.60;;
71395;SDS011;59888;55.814;37.132;2023-01-05T08:42:09;6.00;;;3.30;;
71395;SDS011;59888;55.814;37.132;2023-01-05T08:44:35;6.38;;;3.33;;
71395;SDS011;59888;55.814;37.132;2023-01-05T08:47:01;10.68;;;3.03;;
71395;SDS011;59888;55.814;37.132;2023-01-05T08:49:26;6.97;;;2.90;;
71395;SDS011;59888;55.814;37.132;2023-01-05T08:51:52;5.18;;;2.80;;
71395;SDS011;59888;55.814;37.132;2023-01-05T08:54:18;5.22;;;2.90;;
71395;SDS011;59888;55.814;37.132;2023-01-05T08:56:44;6.53;;;3.13;;
71395;SDS011;59888;55.814;37.132;2023-01-05T08:59:10;6.55;;;2.80;;
71395;SDS011;59888;55.814;37.132;2023-01-05T09:01:37;7.53;;;2.92;;
71395;SDS011;59888;55.814;37.132;2023-01-05T09:04:03;7.03;;;3.10;;
71395;SDS011;59888;55.814;37.132;2023-01-05T09:06:29;5.40;;;2.92;;
71395;SDS011;59888;55.814;37.132;2023-01-05T09:08:55;7.00;;;3.05;;
71395;SDS011;59888;55.814;37.132;2023-01-05T09:11:22;6.13;;;2.95;;
71395;SDS011;59888;55.814;37.132;2023-01-05T09:13:50;4.70;;;2.40;;
71395;SDS011;59888;55.814;37.132;2023-01-05T09:18:51;5.95;;;3.08;;
71395;SDS011;59888;55.814;37.132;2023-01-05T09:21:17;6.80;;;2.70;;
71395;SDS011;59888;55.814;37.132;2023-01-05T09:23:43;5.28;;;2.70;;
71395;SDS011;59888;55.814;37.132;2023-01-05T09:26:10;4.45;;;2.00;;
71395;SDS011;59888;55.814;37.132;2023-01-05T09:28:37;5.43;;;2.78;;
71395;SDS011;59888;55.814;37.132;2023-01-05T09:33:42;6.75;;;2.50;;
71395;SDS011;59888;55.814;37.132;2023-01-05T09:36:09;6.75;;;2.85;;
71395;SDS011;59888;55.814;37.132;2023-01-05T09:38:35;4.85;;;2.15;;
71395;SDS011;59888;55.814;37.132;2023-01-05T09:41:05;3.45;;;2.15;;
71395;SDS011;59888;55.814;37.132;2023-01-05T09:43:39;6.28;;;1.98;;
71395;SDS011;59888;55.814;37.132;2023-01-05T09:46:09;4.00;;;2.00;;
71395;SDS011;59888;55.814;37.132;2023-01-05T09:48:40;4.72;;;2.10;;
71395;SDS011;59888;55.814;37.132;2023-01-05T09:51:09;3.17;;;1.80;;
71395;SDS011;59888;55.814;37.132;2023-01-05T09:53:37;4.75;;;1.90;;
71395;SDS011;59888;55.814;37.132;2023-01-05T09:56:04;4.68;;;1.73;;
71395;SDS011;59888;55.814;37.132;2023-01-05T09:58:35;3.22;;;1.67;;
71395;SDS011;59888;55.814;37.132;2023-01-05T10:01:10;4.30;;;2.00;;
71395;SDS011;59888;55.814;37.132;2023-01-05T10:04:00;3.43;;;1.80;;
71395;SDS011;59888;55.814;37.132;2023-01-05T10:06:28;5.38;;;1.83;;
71395;SDS011;59888;55.814;37.132;2023-01-05T10:08:56;3.85;;;1.80;;
71395;SDS011;59888;55.814;37.132;2023-01-05T10:11:37;6.15;;;2.28;;
71395;SDS011;59888;55.814;37.132;2023-01-05T10:14:29;4.32;;;2.00;;
71395;SDS011;59888;55.814;37.132;2023-01-05T10:17:01;4.93;;;2.20;;
71395;SDS011;59888;55.814;37.132;2023-01-05T10:19:26;8.93;;;4.07;;
71395;SDS011;59888;55.814;37.132;2023-01-05T10:25:04;5.35;;;2.45;;
71395;SDS011;59888;55.814;37.132;2023-01-05T10:30:42;5.97;;;2.33;;
71395;SDS011;59888;55.814;37.132;2023-01-05T10:33:24;5.63;;;2.30;;
71395;SDS011;59888;55.814;37.132;2023-01-05T10:41:41;4.90;;;2.53;;
71395;SDS011;59888;55.814;37.132;2023-01-05T10:47:17;5.88;;;2.50;;
71395;SDS011;59888;55.814;37.132;2023-01-05T10:49:45;4.55;;;2.60;;
71395;SDS011;59888;55.814;37.132;2023-01-05T10:52:13;6.95;;;2.70;;
71395;SDS011;59888;55.814;37.132;2023-01-05T10:54:54;5.32;;;2.50;;
71395;SDS011;59888;55.814;37.132;2023-01-05T10:59:58;5.15;;;2.17;;
71395;SDS011;59888;55.814;37.132;2023-01-05T11:02:35;7.78;;;2.50;;
71395;SDS011;59888;55.814;37.132;2023-01-05T11:07:47;5.50;;;2.58;;
71395;SDS011;59888;55.814;37.132;2023-01-05T11:10:22;4.78;;;2.35;;
71395;SDS011;59888;55.814;37.132;2023-01-05T11:13:01;6.28;;;2.30;;
71395;SDS011;59888;55.814;37.132;2023-01-05T11:15:33;5.38;;;2.60;;
71395;SDS011;59888;55.814;37.132;2023-01-05T11:18:05;10.00;;;3.30;;
71395;SDS011;59888;55.814;37.132;2023-01-05T11:20:32;5.25;;;2.70;;
71395;SDS011;59888;55.814;37.132;2023-01-05T11:22:57;4.70;;;2.75;;
71395;SDS011;59888;55.814;37.132;2023-01-05T11:30:34;5.22;;;2.90;;
71395;SDS011;59888;55.814;37.132;2023-01-05T11:33:00;6.28;;;3.03;;
71395;SDS011;59888;55.814;37.132;2023-01-05T11:37:56;6.72;;;2.65;;
71395;SDS011;59888;55.814;37.132;2023-01-05T11:40:22;6.88;;;2.40;;
71395;SDS011;59888;55.814;37.132;2023-01-05T11:42:53;5.78;;;2.53;;
71395;SDS011;59888;55.814;37.132;2023-01-05T11:45:26;5.00;;;2.60;;
71395;SDS011;59888;55.814;37.132;2023-01-05T11:47:59;8.40;;;2.80;;
71395;SDS011;59888;55.814;37.132;2023-01-05T11:50:52;5.32;;;2.50;;
71395;SDS011;59888;55.814;37.132;2023-01-05T11:53:22;11.75;;;4.25;;
71395;SDS011;59888;55.814;37.132;2023-01-05T11:56:42;5.95;;;2.40;;
71395;SDS011;59888;55.814;37.132;2023-01-05T11:58:56;7.43;;;2.92;;
71395;SDS011;59888;55.814;37.132;2023-01-05T12:08:51;9.00;;;3.17;;
71395;SDS011;59888;55.814;37.132;2023-01-05T12:11:24;6.97;;;3.10;;
71395;SDS011;59888;55.814;37.132;2023-01-05T12:13:59;7.35;;;3.40;;
71395;SDS011;59888;55.814;37.132;2023-01-05T12:16:52;7.60;;;2.95;;
71395;SDS011;59888;55.814;37.132;2023-01-05T12:25:31;8.60;;;3.80;;
71395;SDS011;59888;55.814;37.132;2023-01-05T12:27:59;9.48;;;3.28;;
71395;SDS011;59888;55.814;37.132;2023-01-05T12:38:45;7.97;;;3.50;;
71395;SDS011;59888;55.814;37.132;2023-01-05T12:46:50;8.18;;;3.15;;
71395;SDS011;59888;55.814;37.132;2023-01-05T12:49:20;11.60;;;4.10;;
71395;SDS011;59888;55.814;37.132;2023-01-05T12:52:02;9.30;;;3.80;;
71395;SDS011;59888;55.814;37.132;2023-01-05T12:57:15;7.95;;;3.63;;
71395;SDS011;59888;55.814;37.132;2023-01-05T12:59:55;7.88;;;3.40;;
71395;SDS011;59888;55.814;37.132;2023-01-05T13:02:38;8.38;;;3.60;;
71395;SDS011;59888;55.814;37.132;2023-01-05T13:10:40;10.02;;;4.05;;
71395;SDS011;59888;55.814;37.132;2023-01-05T13:13:13;11.00;;;4.47;;
71395;SDS011;59888;55.814;37.132;2023-01-05T13:15:48;12.75;;;4.90;;
71395;SDS011;59888;55.814;37.132;2023-01-05T13:18:21;11.38;;;5.07;;
71395;SDS011;59888;55.814;37.132;2023-01-05T13:20:54;13.55;;;4.53;;
71395;SDS011;59888;55.814;37.132;2023-01-05T13:25:56;14.70;;;4.95;;
71395;SDS011;59888;55.814;37.132;2023-01-05T13:28:28;7.95;;;4.00;;
71395;SDS011;59888;55.814;37.132;2023-01-05T13:55:09;7.30;;;3.83;;
71395;SDS011;59888;55.814;37.132;2023-01-05T13:57:39;8.38;;;3.85;;
71395;SDS011;59888;55.814;37.132;2023-01-05T14:00:18;9.05;;;4.07;;
71395;SDS011;59888;55.814;37.132;2023-01-05T14:05:52;11.77;;;5.05;;
71395;SDS011;59888;55.814;37.132;2023-01-05T14:08:27;14.07;;;6.05;;
71395;SDS011;59888;55.814;37.132;2023-01-05T14:13:51;9.00;;;4.93;;
71395;SDS011;59888;55.814;37.132;2023-01-05T14:22:02;7.25;;;3.67;;
71395;SDS011;59888;55.814;37.132;2023-01-05T14:24:45;8.52;;;3.45;;
71395;SDS011;59888;55.814;37.132;2023-01-05T14:32:31;9.63;;;3.60;;
71395;SDS011;59888;55.814;37.132;2023-01-05T14:35:17;6.30;;;2.90;;
71395;SDS011;59888;55.814;37.132;2023-01-05T14:40:31;7.30;;;3.45;;
71395;SDS011;59888;55.814;37.132;2023-01-05T14:43:01;10.05;;;3.35;;
71395;SDS011;59888;55.814;37.132;2023-01-05T14:45:31;6.72;;;3.28;;
71395;SDS011;59888;55.814;37.132;2023-01-05T14:48:01;7.72;;;3.50;;
71395;SDS011;59888;55.814;37.132;2023-01-05T14:50:31;6.53;;;2.75;;
71395;SDS011;59888;55.814;37.132;2023-01-05T14:55:35;6.80;;;2.78;;
71395;SDS011;59888;55.814;37.132;2023-01-05T15:00:54;8.52;;;3.28;;
71395;SDS011;59888;55.814;37.132;2023-01-05T15:06:07;8.77;;;3.20;;
71395;SDS011;59888;55.814;37.132;2023-01-05T15:31:12;9.50;;;3.28;;
71395;SDS011;59888;55.814;37.132;2023-01-05T15:39:43;5.53;;;3.00;;
71395;SDS011;59888;55.814;37.132;2023-01-05T15:42:17;6.45;;;2.80;;
71395;SDS011;59888;55.814;37.132;2023-01-05T15:44:47;8.13;;;3.22;;
71395;SDS011;59888;55.814;37.132;2023-01-05T15:47:16;5.07;;;2.22;;
71395;SDS011;59888;55.814;37.132;2023-01-05T15:49:44;6.97;;;2.85;;
71395;SDS011;59888;55.814;37.132;2023-01-05T15:52:23;5.78;;;2.53;;
71395;SDS011;59888;55.814;37.132;2023-01-05T15:55:01;8.02;;;2.38;;
71395;SDS011;59888;55.814;37.132;2023-01-05T15:57:40;8.63;;;3.05;;
71395;SDS011;59888;55.814;37.132;2023-01-05T16:00:20;9.63;;;3.33;;
71395;SDS011;59888;55.814;37.132;2023-01-05T16:02:48;9.18;;;2.83;;
71395;SDS011;59888;55.814;37.132;2023-01-05T16:05:19;7.72;;;2.85;;
71395;SDS011;59888;55.814;37.132;2023-01-05T16:10:17;9.90;;;3.95;;
71395;SDS011;59888;55.814;37.132;2023-01-05T16:12:46;9.65;;;3.72;;
71395;SDS011;59888;55.814;37.132;2023-01-05T16:15:15;7.18;;;3.40;;
71395;SDS011;59888;55.814;37.132;2023-01-05T16:17:46;8.48;;;3.90;;
71395;SDS011;59888;55.814;37.132;2023-01-05T16:20:15;9.68;;;3.22;;
71395;SDS011;59888;55.814;37.132;2023-01-05T16:23:03;6.07;;;3.08;;
71395;SDS011;59888;55.814;37.132;2023-01-05T16:25:48;8.88;;;3.08;;
71395;SDS011;59888;55.814;37.132;2023-01-05T16:28:18;10.90;;;3.13;;
71395;SDS011;59888;55.814;37.132;2023-01-05T16:30:46;7.32;;;3.42;;
71395;SDS011;59888;55.814;37.132;2023-01-05T16:38:27;8.70;;;3.90;;
71395;SDS011;59888;55.814;37.132;2023-01-05T16:51:08;12.65;;;3.95;;
71395;SDS011;59888;55.814;37.132;2023-01-05T16:53:46;9.98;;;3.58;;
71395;SDS011;59888;55.814;37.132;2023-01-05T16:56:18;9.98;;;3.60;;
71395;SDS011;59888;55.814;37.132;2023-01-05T16:58:57;12.20;;;3.85;;
71395;SDS011;59888;55.814;37.132;2023-01-05T17:01:25;8.35;;;3.50;;
71395;SDS011;59888;55.814;37.132;2023-01-05T17:04:10;9.85;;;4.03;;
71395;SDS011;59888;55.814;37.132;2023-01-05T17:06:37;18.90;;;5.15;;
71395;SDS011;59888;55.814;37.132;2023-01-05T17:09:06;13.52;;;4.05;;
71395;SDS011;59888;55.814;37.132;2023-01-05T17:11:39;12.73;;;4.68;;
71395;SDS011;59888;55.814;37.132;2023-01-05T17:14:05;13.25;;;4.05;;
71395;SDS011;59888;55.814;37.132;2023-01-05T17:16:31;11.38;;;4.15;;
71395;SDS011;59888;55.814;37.132;2023-01-05T17:18:58;11.60;;;4.40;;
71395;SDS011;59888;55.814;37.132;2023-01-05T17:21:25;14.43;;;4.57;;
71395;SDS011;59888;55.814;37.132;2023-01-05T17:23:53;12.75;;;4.88;;
71395;SDS011;59888;55.814;37.132;2023-01-05T17:28:54;15.50;;;4.68;;
71395;SDS011;59888;55.814;37.132;2023-01-05T17:31:23;13.30;;;4.68;;
71395;SDS011;59888;55.814;37.132;2023-01-05T17:33:49;16.15;;;5.15;;
71395;SDS011;59888;55.814;37.132;2023-01-05T17:36:15;15.32;;;4.85;;
71395;SDS011;59888;55.814;37.132;2023-01-05T17:38:42;14.20;;;5.10;;
71395;SDS011;59888;55.814;37.132;2023-01-05T17:41:09;11.98;;;4.53;;
71395;SDS011;59888;55.814;37.132;2023-01-05T17:43:37;10.98;;;4.80;;
71395;SDS011;59888;55.814;37.132;2023-01-05T17:46:04;10.50;;;5.10;;
71395;SDS011;59888;55.814;37.132;2023-01-05T17:48:30;18.20;;;6.38;;
71395;SDS011;59888;55.814;37.132;2023-01-05T17:50:56;15.05;;;5.85;;
71395;SDS011;59888;55.814;37.132;2023-01-05T17:53:22;13.90;;;5.20;;
71395;SDS011;59888;55.814;37.132;2023-01-05T17:55:48;14.80;;;5.65;;
71395;SDS011;59888;55.814;37.132;2023-01-05T17:58:14;13.50;;;5.05;;
71395;SDS011;59888;55.814;37.132;2023-01-05T18:00:40;16.05;;;5.85;;
71395;SDS011;59888;55.814;37.132;2023-01-05T18:03:13;14.68;;;4.88;;
71395;SDS011;59888;55.814;37.132;2023-01-05T18:05:42;14.73;;;5.25;;
71395;SDS011;59888;55.814;37.132;2023-01-05T18:08:09;12.05;;;5.28;;
71395;SDS011;59888;55.814;37.132;2023-01-05T18:10:35;15.52;;;5.10;;
71395;SDS011;59888;55.814;37.132;2023-01-05T18:13:03;14.43;;;4.88;;
71395;SDS011;59888;55.814;37.132;2023-01-05T18:15:29;16.17;;;5.40;;
71395;SDS011;59888;55.814;37.132;2023-01-05T18:17:56;15.05;;;5.25;;